Portada
METAR-TAF:

METAR-TAF

Aeroports :

Sirri Island, Iran

latitud: 25-54-34N, longitud: 054-32-22E, altitud: 13 m

Observació

L'informe es va fer fa 48 minuts, a les 12:00 UTC
Vent 14 kt del Oest
Temperatura 38°C
Humitat 54%
Pressió 991 hPa
Visibilitat: 8000 m

METAR: OIBS 241200Z 27014KT 8000 NSC 38/27 Q0991

Hora: 17:18 (12:48 UTC)


TAF: manca

Observacions i pronòstics meteorològics de més de 4000 aeroports (METAR i TAF).

Les estacions disponibles són els punts grocs i vermells al mapa.

Posi el ratolí al punt desitjat per veure el nom de l'estació.

Feu clic per veure les observacions i els pronòstics meteorològics.

Per canviar el mapa: feu clic els botons verds amb una creu de color negre per apropar; al botó verd amb un guió per allunyar la imatge; o en les fletxes verdes per a mapes adjacents.


METAR-TAF: